Burlingame, California
Current Conditions -  °F | °C
As of 7:56 PM on Tuesday 25 Nov 2014 (Local Time) from KSFO Reporting Station
Few Clouds Few Clouds  
Wind Chill: 60°   Ceiling: Unl
Heat Index: 60°   Visibility: 10mi
Dew Point: 51°   Wind: 6mph
Humidity: 72%   Direction: 80°E
Pressure: 30.35"   Gusts: NA
Location:  37.58°N, 122.35°W
Report Text: KSFO 260356Z 08005KT 10SM FEW200 16/11 A3035 RMK AO2 SLP278 T01560106
Loading
Personal Weather Stations






























Interactive Weather Map New forecast layout! Learn more

10-Day Weather Forecast

Advertisements
Track Severe Weather on mobile